Time;durP1;ratioP1;P1;durP2;ratioP2;P2;SDS_P1;SDS_P2;PMS_P1;PMS_P2;Temp;Humidity;BMP_temperature;BMP_pressure;BME280_temperature;BME280_humidity;BME280_pressure;Samples;Min_cycle;Max_cycle;Signal;HPM_P1;HPM_P2
2022/03/07 08:53:00;;;;;;;30.75;17.08;;;;;;;;;;6207283;22;21547;-88
2022/03/07 08:55:25;;;;;;;29.60;18.08;;;;;;;;;;6206484;23;20017;-89
2022/03/07 09:49:25;;;;;;;27.85;17.30;;;;;;;;;;6213500;23;20005;-89
2022/03/07 09:51:51;;;;;;;28.30;17.70;;;;;;;;;;6220278;23;20027;-88
2022/03/07 09:54:17;;;;;;;25.73;16.85;;;;;;;;;;6247185;23;20061;-89
2022/03/07 09:56:42;;;;;;;26.90;17.35;;;;;;;;;;6247169;22;20038;-88
2022/03/07 09:59:08;;;;;;;26.30;16.88;;;;;;;;;;6247577;23;20028;-88
2022/03/07 10:01:35;;;;;;;26.85;15.85;;;;;;;;;;6247112;22;20004;-88
2022/03/07 10:04:08;;;;;;;25.10;16.08;;;;;;;;;;6247026;22;20030;-88
2022/03/07 10:06:33;;;;;;;23.60;15.18;;;;;;;;;;6245372;23;20008;-87
2022/03/07 10:09:00;;;;;;;22.83;15.57;;;;;;;;;;6245598;23;20046;-87
2022/03/07 10:11:28;;;;;;;25.30;15.30;;;;;;;;;;6246811;22;20004;-87
2022/03/07 10:14:02;;;;;;;26.13;16.33;;;;;;;;;;6246817;22;20015;-87
2022/03/07 10:16:39;;;;;;;29.80;18.58;;;;;;;;;;6245214;23;20011;-87
2022/03/07 10:19:12;;;;;;;25.77;16.48;;;;;;;;;;6247168;22;20005;-87
2022/03/07 10:21:50;;;;;;;27.45;18.05;;;;;;;;;;6244734;23;20042;-87
2022/03/07 10:24:16;;;;;;;33.97;17.52;;;;;;;;;;6245094;23;20011;-87
2022/03/07 10:26:43;;;;;;;24.98;16.83;;;;;;;;;;6246702;22;20000;-87
2022/03/07 10:29:09;;;;;;;26.73;16.58;;;;;;;;;;6245318;23;20031;-89
2022/03/07 10:31:37;;;;;;;27.50;16.73;;;;;;;;;;6247835;22;20027;-89
2022/03/07 10:34:10;;;;;;;25.55;17.05;;;;;;;;;;6247173;22;20027;-87
2022/03/07 10:36:41;;;;;;;29.33;18.55;;;;;;;;;;6247212;22;20027;-87
2022/03/07 10:39:09;;;;;;;29.25;17.67;;;;;;;;;;6247487;22;20011;-88
2022/03/07 10:41:42;;;;;;;25.70;17.23;;;;;;;;;;6247198;22;20006;-90
2022/03/07 10:44:24;;;;;;;27.42;16.42;;;;;;;;;;6246895;23;20032;-89
2022/03/07 10:46:49;;;;;;;28.70;17.58;;;;;;;;;;6247865;23;20004;-91
2022/03/07 10:49:17;;;;;;;28.75;18.27;;;;;;;;;;6268800;22;20065;-92
2022/03/07 10:51:53;;;;;;;26.10;16.80;;;;;;;;;;6279040;22;20011;-94
2022/03/07 10:54:21;;;;;;;25.92;17.08;;;;;;;;;;6279324;22;20075;-93
2022/03/07 10:56:54;;;;;;;22.80;15.50;;;;;;;;;;6279002;22;20000;-92
2022/03/07 10:59:32;;;;;;;24.13;16.25;;;;;;;;;;6280339;22;19999;-94
2022/03/07 11:02:04;;;;;;;23.63;15.00;;;;;;;;;;6278585;22;20079;-91
2022/03/07 11:04:30;;;;;;;21.58;14.95;;;;;;;;;;6279720;22;20004;-91
2022/03/07 11:06:56;;;;;;;24.98;15.50;;;;;;;;;;6278638;22;20011;-92
2022/03/07 11:09:22;;;;;;;22.67;15.07;;;;;;;;;;6279964;22;20004;-94
2022/03/07 11:11:50;;;;;;;22.25;14.63;;;;;;;;;;6278515;22;20102;-90
2022/03/07 11:14:17;;;;;;;20.98;14.20;;;;;;;;;;6278443;22;20004;-92
2022/03/07 11:16:45;;;;;;;17.70;11.93;;;;;;;;;;6280186;22;20069;-89
2022/03/07 11:19:11;;;;;;;17.20;12.25;;;;;;;;;;6280718;22;20004;-93
2022/03/07 11:21:40;;;;;;;18.15;12.27;;;;;;;;;;6278734;22;20069;-90
2022/03/07 11:24:06;;;;;;;16.55;11.73;;;;;;;;;;6279551;22;20014;-89
2022/03/07 11:26:32;;;;;;;16.08;10.88;;;;;;;;;;6279950;22;20003;-93
2022/03/07 11:29:00;;;;;;;17.13;12.43;;;;;;;;;;6279600;22;20003;-87
2022/03/07 11:31:28;;;;;;;16.98;11.38;;;;;;;;;;6279829;22;20015;-89
2022/03/07 11:33:55;;;;;;;17.00;11.43;;;;;;;;;;6279170;22;20398;-87
2022/03/07 11:36:23;;;;;;;16.25;11.55;;;;;;;;;;6279099;22;20053;-89
2022/03/07 11:39:00;;;;;;;18.00;11.48;;;;;;;;;;6278111;22;20423;-89
2022/03/07 11:41:28;;;;;;;16.70;12.35;;;;;;;;;;6277865;22;20011;-89
2022/03/07 11:44:03;;;;;;;21.02;13.18;;;;;;;;;;6277805;22;20374;-88
2022/03/07 11:46:41;;;;;;;20.02;12.98;;;;;;;;;;6277418;22;20000;-87
2022/03/07 11:49:23;;;;;;;16.75;12.15;;;;;;;;;;6277922;22;20011;-88
2022/03/07 11:51:57;;;;;;;18.27;13.15;;;;;;;;;;6286321;22;20008;-93
2022/03/07 11:54:23;;;;;;;20.42;13.20;;;;;;;;;;6285292;22;20034;-93
2022/03/07 11:56:49;;;;;;;19.40;12.80;;;;;;;;;;6279875;22;20422;-88
2022/03/07 11:59:15;;;;;;;20.42;12.85;;;;;;;;;;6278392;22;20149;-90
2022/03/07 12:01:52;;;;;;;20.67;14.07;;;;;;;;;;6279705;22;20010;-88
2022/03/07 12:04:20;;;;;;;19.17;13.80;;;;;;;;;;6280312;22;20058;-88
2022/03/07 12:06:50;;;;;;;23.90;14.60;;;;;;;;;;6278428;22;19995;-91
2022/03/07 12:09:42;;;;;;;20.65;14.02;;;;;;;;;;6280091;22;20422;-91
2022/03/07 12:12:10;;;;;;;19.77;13.75;;;;;;;;;;6274542;22;20011;-92
2022/03/07 12:14:45;;;;;;;22.40;14.73;;;;;;;;;;6280493;22;20000;-89
2022/03/07 12:17:24;;;;;;;19.27;14.35;;;;;;;;;;6282827;22;20011;-88
2022/03/07 12:19:55;;;;;;;24.17;15.73;;;;;;;;;;6283056;22;20008;-89
2022/03/07 12:22:24;;;;;;;22.33;13.70;;;;;;;;;;6281222;22;20042;-88
2022/03/07 12:24:49;;;;;;;23.90;14.18;;;;;;;;;;6283109;22;20030;-91
2022/03/07 12:27:15;;;;;;;21.17;14.85;;;;;;;;;;6283720;22;20419;-91
2022/03/07 12:29:43;;;;;;;24.40;16.38;;;;;;;;;;6281700;22;20091;-90
2022/03/07 12:32:10;;;;;;;22.75;15.48;;;;;;;;;;6267884;22;20103;-94
2022/03/07 12:34:39;;;;;;;27.48;16.52;;;;;;;;;;6224263;23;20004;-95
2022/03/07 12:37:10;;;;;;;24.20;17.02;;;;;;;;;;6248276;23;20024;-96
2022/03/07 12:40:03;;;;;;;22.98;15.02;;;;;;;;;;6248229;23;20015;-95
2022/03/07 12:42:31;;;;;;;20.42;15.38;;;;;;;;;;6241990;23;20083;-93
2022/03/07 12:45:00;;;;;;;20.42;14.90;;;;;;;;;;6248210;23;20004;-93
2022/03/07 12:47:28;;;;;;;22.35;15.45;;;;;;;;;;6247678;23;20015;-93
2022/03/07 17:16:50;;;;;;;27.10;18.00;;;;;;;;;;6264726;22;20019;-95
2022/03/07 17:19:18;;;;;;;31.27;17.67;;;;;;;;;;6248562;22;20024;-95
2022/03/07 17:27:44;;;;;;;28.02;16.13;;;;;;;;;;6257318;22;20008;-93
2022/03/07 17:49:20;;;;;;;30.83;17.25;;;;;;;;;;6260566;22;20061;-95
2022/03/07 17:52:08;;;;;;;31.45;17.42;;;;;;;;;;6183830;23;20003;-94
2022/03/07 17:54:35;;;;;;;33.63;19.15;;;;;;;;;;6230793;22;19995;-94
2022/03/07 18:11:11;;;;;;;27.50;16.85;;;;;;;;;;6221414;22;20214;-89
2022/03/07 18:18:42;;;;;;;33.17;17.88;;;;;;;;;;6238850;23;20025;-86
2022/03/07 18:21:08;;;;;;;28.48;16.92;;;;;;;;;;6240351;23;19991;-88
2022/03/07 18:47:09;;;;;;;27.00;16.70;;;;;;;;;;6212063;22;20012;-89
2022/03/07 18:49:53;;;;;;;24.85;16.20;;;;;;;;;;6273390;22;20034;-89
2022/03/07 19:00:40;;;;;;;29.70;18.27;;;;;;;;;;6260472;23;20020;-95
2022/03/07 19:03:08;;;;;;;28.93;18.03;;;;;;;;;;6238921;23;20011;-96
2022/03/07 19:05:34;;;;;;;26.55;17.40;;;;;;;;;;6212119;23;20031;-96
2022/03/07 19:08:00;;;;;;;31.80;17.83;;;;;;;;;;6242595;23;20370;-91
2022/03/07 19:16:30;;;;;;;34.97;19.55;;;;;;;;;;6243477;23;20038;-96
2022/03/07 19:32:44;;;;;;;31.92;18.52;;;;;;;;;;6212584;22;20012;-87
2022/03/07 19:35:14;;;;;;;30.23;17.20;;;;;;;;;;6262794;23;20074;-88
2022/03/07 19:37:41;;;;;;;30.38;18.02;;;;;;;;;;6231444;23;19996;-88
2022/03/07 19:41:08;;;;;;;31.27;18.75;;;;;;;;;;6236095;22;19997;-88
2022/03/07 20:20:24;;;;;;;27.63;16.98;;;;;;;;;;6265330;22;20031;-93
2022/03/07 20:31:40;;;;;;;32.90;18.67;;;;;;;;;;6196467;22;20722;-90
2022/03/07 20:34:08;;;;;;;36.53;19.10;;;;;;;;;;6253251;23;20169;-89
2022/03/07 20:36:35;;;;;;;31.73;19.42;;;;;;;;;;6254507;22;20435;-90
2022/03/07 20:39:03;;;;;;;29.85;18.70;;;;;;;;;;6253271;22;20000;-89
2022/03/07 20:41:29;;;;;;;31.40;18.83;;;;;;;;;;6250063;22;20000;-88
2022/03/07 20:43:55;;;;;;;31.70;19.73;;;;;;;;;;6249191;23;20012;-90
2022/03/07 20:46:22;;;;;;;33.05;21.10;;;;;;;;;;6252699;22;20007;-91
2022/03/07 20:48:49;;;;;;;35.55;21.25;;;;;;;;;;6250475;23;20004;-90
2022/03/07 20:51:14;;;;;;;35.92;21.15;;;;;;;;;;6249096;23;20038;-91
2022/03/07 20:53:53;;;;;;;30.00;18.23;;;;;;;;;;6250718;23;20008;-89
2022/03/07 20:56:41;;;;;;;30.08;18.65;;;;;;;;;;6262467;22;19997;-90
2022/03/07 20:59:48;;;;;;;30.58;17.42;;;;;;;;;;6243447;23;20016;-89
2022/03/07 21:03:04;;;;;;;32.65;19.27;;;;;;;;;;6236771;23;20083;-89
2022/03/07 21:05:29;;;;;;;34.92;18.52;;;;;;;;;;6229491;23;20051;-89
2022/03/07 21:11:18;;;;;;;35.30;19.55;;;;;;;;;;6259804;22;20058;-89
2022/03/07 21:14:26;;;;;;;36.95;19.65;;;;;;;;;;6237033;22;19997;-89
2022/03/07 21:20:17;;;;;;;33.38;20.00;;;;;;;;;;6223649;22;20025;-89
2022/03/07 21:22:45;;;;;;;41.95;32.33;;;;;;;;;;6207430;23;20032;-90
2022/03/07 21:48:28;;;;;;;55.53;26.77;;;;;;;;;;6275015;22;20058;-90
2022/03/07 21:50:55;;;;;;;38.17;21.65;;;;;;;;;;6260765;22;20039;-90
2022/03/07 21:53:58;;;;;;;38.28;21.48;;;;;;;;;;6250870;22;20008;-89
2022/03/07 22:51:05;;;;;;;41.55;23.02;;;;;;;;;;6252392;23;20032;-88
